sensor_id;sensor_type;location;lat;lon;timestamp;P1;durP1;ratioP1;P2;durP2;ratioP2
34896;SDS011;43407;51.828;-2.298;2024-02-26T00:01:09;3.65;;;2.00;;
34896;SDS011;43407;51.828;-2.298;2024-02-26T00:03:34;3.38;;;1.98;;
34896;SDS011;43407;51.828;-2.298;2024-02-26T00:06:01;3.63;;;2.10;;
34896;SDS011;43407;51.828;-2.298;2024-02-26T00:08:26;4.65;;;1.70;;
34896;SDS011;43407;51.828;-2.298;2024-02-26T00:10:52;3.78;;;1.80;;
34896;SDS011;43407;51.828;-2.298;2024-02-26T00:13:17;3.17;;;1.90;;
34896;SDS011;43407;51.828;-2.298;2024-02-26T00:15:43;4.70;;;2.10;;
34896;SDS011;43407;51.828;-2.298;2024-02-26T00:18:08;3.58;;;1.85;;
34896;SDS011;43407;51.828;-2.298;2024-02-26T00:20:34;5.47;;;1.77;;
34896;SDS011;43407;51.828;-2.298;2024-02-26T00:22:59;3.60;;;1.80;;
34896;SDS011;43407;51.828;-2.298;2024-02-26T00:25:25;3.67;;;2.10;;
34896;SDS011;43407;51.828;-2.298;2024-02-26T00:27:50;4.05;;;1.80;;
34896;SDS011;43407;51.828;-2.298;2024-02-26T00:30:15;4.68;;;1.98;;
34896;SDS011;43407;51.828;-2.298;2024-02-26T00:32:41;3.15;;;1.98;;
34896;SDS011;43407;51.828;-2.298;2024-02-26T00:35:06;4.68;;;1.98;;
34896;SDS011;43407;51.828;-2.298;2024-02-26T00:37:32;3.17;;;2.22;;
34896;SDS011;43407;51.828;-2.298;2024-02-26T00:39:57;4.85;;;2.20;;
34896;SDS011;43407;51.828;-2.298;2024-02-26T00:42:23;4.97;;;1.92;;
34896;SDS011;43407;51.828;-2.298;2024-02-26T00:44:48;2.63;;;1.67;;
34896;SDS011;43407;51.828;-2.298;2024-02-26T00:47:13;4.38;;;1.83;;
34896;SDS011;43407;51.828;-2.298;2024-02-26T00:49:39;4.93;;;1.83;;
34896;SDS011;43407;51.828;-2.298;2024-02-26T00:52:04;5.60;;;2.00;;
34896;SDS011;43407;51.828;-2.298;2024-02-26T00:54:30;5.22;;;1.98;;
34896;SDS011;43407;51.828;-2.298;2024-02-26T00:56:55;2.15;;;1.35;;
34896;SDS011;43407;51.828;-2.298;2024-02-26T00:59:20;5.93;;;1.77;;
34896;SDS011;43407;51.828;-2.298;2024-02-26T01:01:46;4.85;;;1.80;;
34896;SDS011;43407;51.828;-2.298;2024-02-26T01:04:11;3.92;;;1.63;;
34896;SDS011;43407;51.828;-2.298;2024-02-26T01:06:37;3.70;;;1.50;;
34896;SDS011;43407;51.828;-2.298;2024-02-26T01:09:02;2.13;;;1.42;;
34896;SDS011;43407;51.828;-2.298;2024-02-26T01:11:28;2.50;;;1.40;;
34896;SDS011;43407;51.828;-2.298;2024-02-26T01:13:53;1.80;;;1.25;;
34896;SDS011;43407;51.828;-2.298;2024-02-26T01:16:21;7.55;;;2.08;;
34896;SDS011;43407;51.828;-2.298;2024-02-26T01:18:47;3.78;;;1.40;;
34896;SDS011;43407;51.828;-2.298;2024-02-26T01:21:12;4.72;;;1.77;;
34896;SDS011;43407;51.828;-2.298;2024-02-26T01:23:38;3.97;;;1.75;;
34896;SDS011;43407;51.828;-2.298;2024-02-26T01:26:03;3.92;;;1.75;;
34896;SDS011;43407;51.828;-2.298;2024-02-26T01:28:29;4.18;;;1.55;;
34896;SDS011;43407;51.828;-2.298;2024-02-26T01:30:55;8.20;;;1.77;;
34896;SDS011;43407;51.828;-2.298;2024-02-26T01:33:20;3.60;;;1.80;;
34896;SDS011;43407;51.828;-2.298;2024-02-26T01:35:46;4.90;;;2.05;;
34896;SDS011;43407;51.828;-2.298;2024-02-26T01:38:11;4.57;;;2.00;;
34896;SDS011;43407;51.828;-2.298;2024-02-26T01:40:37;5.32;;;2.17;;
34896;SDS011;43407;51.828;-2.298;2024-02-26T01:43:02;7.60;;;2.35;;
34896;SDS011;43407;51.828;-2.298;2024-02-26T01:45:28;5.68;;;2.10;;
34896;SDS011;43407;51.828;-2.298;2024-02-26T01:47:53;3.88;;;1.90;;
34896;SDS011;43407;51.828;-2.298;2024-02-26T01:50:19;4.68;;;2.10;;
34896;SDS011;43407;51.828;-2.298;2024-02-26T01:52:45;3.33;;;2.10;;
34896;SDS011;43407;51.828;-2.298;2024-02-26T01:55:12;4.65;;;2.20;;
34896;SDS011;43407;51.828;-2.298;2024-02-26T01:57:39;4.78;;;2.20;;
34896;SDS011;43407;51.828;-2.298;2024-02-26T02:00:05;4.97;;;2.10;;
34896;SDS011;43407;51.828;-2.298;2024-02-26T02:02:31;4.32;;;2.10;;
34896;SDS011;43407;51.828;-2.298;2024-02-26T02:04:56;4.82;;;2.25;;
34896;SDS011;43407;51.828;-2.298;2024-02-26T02:07:21;5.03;;;2.05;;
34896;SDS011;43407;51.828;-2.298;2024-02-26T02:09:48;6.05;;;2.33;;
34896;SDS011;43407;51.828;-2.298;2024-02-26T02:12:13;4.32;;;2.00;;
34896;SDS011;43407;51.828;-2.298;2024-02-26T02:14:39;5.47;;;1.90;;
34896;SDS011;43407;51.828;-2.298;2024-02-26T02:17:04;4.95;;;2.20;;
34896;SDS011;43407;51.828;-2.298;2024-02-26T02:19:30;3.75;;;2.00;;
34896;SDS011;43407;51.828;-2.298;2024-02-26T02:21:55;5.95;;;1.90;;
34896;SDS011;43407;51.828;-2.298;2024-02-26T02:24:21;3.67;;;1.80;;
34896;SDS011;43407;51.828;-2.298;2024-02-26T02:26:46;4.50;;;2.47;;
34896;SDS011;43407;51.828;-2.298;2024-02-26T02:29:11;5.35;;;2.13;;
34896;SDS011;43407;51.828;-2.298;2024-02-26T02:31:37;4.95;;;2.05;;
34896;SDS011;43407;51.828;-2.298;2024-02-26T02:34:03;4.13;;;1.90;;
34896;SDS011;43407;51.828;-2.298;2024-02-26T02:36:28;3.03;;;2.08;;
34896;SDS011;43407;51.828;-2.298;2024-02-26T02:38:53;3.55;;;1.75;;
34896;SDS011;43407;51.828;-2.298;2024-02-26T02:41:19;6.10;;;2.30;;
34896;SDS011;43407;51.828;-2.298;2024-02-26T02:43:44;5.90;;;1.98;;
34896;SDS011;43407;51.828;-2.298;2024-02-26T02:46:10;6.72;;;1.92;;
34896;SDS011;43407;51.828;-2.298;2024-02-26T02:48:37;2.45;;;1.85;;
34896;SDS011;43407;51.828;-2.298;2024-02-26T02:51:02;4.88;;;1.90;;
34896;SDS011;43407;51.828;-2.298;2024-02-26T02:53:27;4.45;;;2.15;;
34896;SDS011;43407;51.828;-2.298;2024-02-26T02:55:53;2.47;;;1.77;;
34896;SDS011;43407;51.828;-2.298;2024-02-26T02:58:18;2.35;;;1.73;;
34896;SDS011;43407;51.828;-2.298;2024-02-26T03:00:44;5.65;;;1.70;;
34896;SDS011;43407;51.828;-2.298;2024-02-26T03:03:09;3.72;;;1.63;;
34896;SDS011;43407;51.828;-2.298;2024-02-26T03:05:35;2.35;;;1.33;;
34896;SDS011;43407;51.828;-2.298;2024-02-26T03:08:00;3.70;;;1.60;;
34896;SDS011;43407;51.828;-2.298;2024-02-26T03:10:25;5.53;;;1.63;;
34896;SDS011;43407;51.828;-2.298;2024-02-26T03:12:51;3.13;;;1.50;;
34896;SDS011;43407;51.828;-2.298;2024-02-26T03:15:16;1.92;;;1.60;;
34896;SDS011;43407;51.828;-2.298;2024-02-26T03:17:41;2.13;;;1.58;;
34896;SDS011;43407;51.828;-2.298;2024-02-26T03:20:07;6.68;;;1.88;;
34896;SDS011;43407;51.828;-2.298;2024-02-26T03:22:34;5.68;;;2.10;;
34896;SDS011;43407;51.828;-2.298;2024-02-26T03:24:59;5.43;;;2.20;;
34896;SDS011;43407;51.828;-2.298;2024-02-26T03:27:25;7.40;;;2.03;;
34896;SDS011;43407;51.828;-2.298;2024-02-26T03:29:50;8.65;;;2.22;;
34896;SDS011;43407;51.828;-2.298;2024-02-26T03:32:16;3.92;;;2.38;;
34896;SDS011;43407;51.828;-2.298;2024-02-26T03:34:41;4.15;;;2.25;;
34896;SDS011;43407;51.828;-2.298;2024-02-26T03:37:07;5.32;;;2.30;;
34896;SDS011;43407;51.828;-2.298;2024-02-26T03:39:34;4.95;;;2.35;;
34896;SDS011;43407;51.828;-2.298;2024-02-26T03:41:59;5.75;;;2.42;;
34896;SDS011;43407;51.828;-2.298;2024-02-26T03:44:25;6.43;;;3.10;;
34896;SDS011;43407;51.828;-2.298;2024-02-26T03:46:50;4.63;;;2.58;;
34896;SDS011;43407;51.828;-2.298;2024-02-26T03:49:15;6.63;;;2.90;;
34896;SDS011;43407;51.828;-2.298;2024-02-26T03:51:41;8.60;;;3.35;;
34896;SDS011;43407;51.828;-2.298;2024-02-26T03:54:07;4.28;;;3.05;;
34896;SDS011;43407;51.828;-2.298;2024-02-26T03:56:32;5.22;;;2.90;;
34896;SDS011;43407;51.828;-2.298;2024-02-26T03:58:57;4.68;;;2.90;;
34896;SDS011;43407;51.828;-2.298;2024-02-26T04:01:24;7.68;;;2.97;;
34896;SDS011;43407;51.828;-2.298;2024-02-26T04:03:50;5.50;;;3.38;;
34896;SDS011;43407;51.828;-2.298;2024-02-26T04:06:15;6.22;;;3.45;;
34896;SDS011;43407;51.828;-2.298;2024-02-26T04:08:43;9.38;;;3.65;;
34896;SDS011;43407;51.828;-2.298;2024-02-26T04:11:08;5.35;;;3.13;;
34896;SDS011;43407;51.828;-2.298;2024-02-26T04:13:34;5.07;;;3.50;;
34896;SDS011;43407;51.828;-2.298;2024-02-26T04:16:00;6.38;;;3.25;;
34896;SDS011;43407;51.828;-2.298;2024-02-26T04:18:26;7.00;;;3.25;;
34896;SDS011;43407;51.828;-2.298;2024-02-26T04:20:52;7.45;;;3.58;;
34896;SDS011;43407;51.828;-2.298;2024-02-26T04:23:17;7.80;;;2.92;;
34896;SDS011;43407;51.828;-2.298;2024-02-26T04:25:43;10.65;;;3.38;;
34896;SDS011;43407;51.828;-2.298;2024-02-26T04:28:08;5.38;;;3.08;;
34896;SDS011;43407;51.828;-2.298;2024-02-26T04:30:33;5.82;;;2.88;;
34896;SDS011;43407;51.828;-2.298;2024-02-26T04:32:59;6.03;;;3.00;;
34896;SDS011;43407;51.828;-2.298;2024-02-26T04:35:24;5.18;;;2.97;;
34896;SDS011;43407;51.828;-2.298;2024-02-26T04:37:50;7.72;;;2.72;;
34896;SDS011;43407;51.828;-2.298;2024-02-26T04:40:15;7.32;;;2.90;;
34896;SDS011;43407;51.828;-2.298;2024-02-26T04:42:40;7.00;;;2.63;;
34896;SDS011;43407;51.828;-2.298;2024-02-26T04:45:06;4.65;;;2.22;;
34896;SDS011;43407;51.828;-2.298;2024-02-26T04:47:33;4.05;;;2.10;;
34896;SDS011;43407;51.828;-2.298;2024-02-26T04:49:58;4.57;;;2.50;;
34896;SDS011;43407;51.828;-2.298;2024-02-26T04:52:24;6.90;;;2.47;;
34896;SDS011;43407;51.828;-2.298;2024-02-26T04:54:49;5.00;;;2.40;;
34896;SDS011;43407;51.828;-2.298;2024-02-26T04:57:15;5.88;;;2.40;;
34896;SDS011;43407;51.828;-2.298;2024-02-26T04:59:43;3.40;;;2.00;;
34896;SDS011;43407;51.828;-2.298;2024-02-26T05:02:09;5.68;;;2.13;;
34896;SDS011;43407;51.828;-2.298;2024-02-26T05:04:34;6.60;;;2.40;;
34896;SDS011;43407;51.828;-2.298;2024-02-26T05:07:00;8.63;;;2.78;;
34896;SDS011;43407;51.828;-2.298;2024-02-26T05:09:25;4.72;;;2.30;;
34896;SDS011;43407;51.828;-2.298;2024-02-26T05:11:51;4.38;;;2.28;;
34896;SDS011;43407;51.828;-2.298;2024-02-26T05:14:16;5.70;;;2.30;;
34896;SDS011;43407;51.828;-2.298;2024-02-26T05:16:41;5.22;;;1.95;;
34896;SDS011;43407;51.828;-2.298;2024-02-26T05:19:07;4.90;;;2.28;;
34896;SDS011;43407;51.828;-2.298;2024-02-26T05:21:32;7.10;;;2.58;;
34896;SDS011;43407;51.828;-2.298;2024-02-26T05:23:58;4.78;;;2.10;;
34896;SDS011;43407;51.828;-2.298;2024-02-26T05:26:24;4.13;;;1.80;;
34896;SDS011;43407;51.828;-2.298;2024-02-26T05:28:49;5.20;;;1.95;;
34896;SDS011;43407;51.828;-2.298;2024-02-26T05:31:15;6.25;;;2.03;;
34896;SDS011;43407;51.828;-2.298;2024-02-26T05:33:41;2.55;;;1.60;;
34896;SDS011;43407;51.828;-2.298;2024-02-26T05:36:06;7.03;;;1.63;;
34896;SDS011;43407;51.828;-2.298;2024-02-26T05:38:32;5.03;;;2.00;;
34896;SDS011;43407;51.828;-2.298;2024-02-26T05:40:57;5.20;;;1.70;;
34896;SDS011;43407;51.828;-2.298;2024-02-26T05:43:24;5.30;;;1.60;;
34896;SDS011;43407;51.828;-2.298;2024-02-26T05:45:49;7.10;;;1.88;;
34896;SDS011;43407;51.828;-2.298;2024-02-26T05:48:14;7.00;;;2.20;;
34896;SDS011;43407;51.828;-2.298;2024-02-26T05:50:40;4.32;;;1.80;;
34896;SDS011;43407;51.828;-2.298;2024-02-26T05:53:05;4.82;;;1.65;;
34896;SDS011;43407;51.828;-2.298;2024-02-26T05:55:31;6.38;;;2.08;;
34896;SDS011;43407;51.828;-2.298;2024-02-26T05:57:56;2.45;;;1.80;;
34896;SDS011;43407;51.828;-2.298;2024-02-26T06:00:22;5.78;;;1.67;;
34896;SDS011;43407;51.828;-2.298;2024-02-26T06:02:47;7.13;;;1.83;;
34896;SDS011;43407;51.828;-2.298;2024-02-26T06:05:12;5.60;;;1.63;;
34896;SDS011;43407;51.828;-2.298;2024-02-26T06:07:38;4.85;;;1.65;;
34896;SDS011;43407;51.828;-2.298;2024-02-26T06:10:03;5.63;;;1.48;;
34896;SDS011;43407;51.828;-2.298;2024-02-26T06:12:29;6.05;;;1.60;;
34896;SDS011;43407;51.828;-2.298;2024-02-26T06:14:56;5.10;;;1.50;;
34896;SDS011;43407;51.828;-2.298;2024-02-26T06:17:21;3.50;;;1.50;;
34896;SDS011;43407;51.828;-2.298;2024-02-26T06:19:47;3.28;;;1.30;;
34896;SDS011;43407;51.828;-2.298;2024-02-26T06:22:12;8.95;;;1.60;;
34896;SDS011;43407;51.828;-2.298;2024-02-26T06:24:38;3.58;;;1.58;;
34896;SDS011;43407;51.828;-2.298;2024-02-26T06:27:03;3.53;;;1.48;;
34896;SDS011;43407;51.828;-2.298;2024-02-26T06:29:29;3.08;;;1.33;;
34896;SDS011;43407;51.828;-2.298;2024-02-26T06:31:54;5.88;;;1.20;;
34896;SDS011;43407;51.828;-2.298;2024-02-26T06:34:20;7.20;;;1.60;;
34896;SDS011;43407;51.828;-2.298;2024-02-26T06:36:45;1.98;;;1.00;;
34896;SDS011;43407;51.828;-2.298;2024-02-26T06:39:11;4.47;;;1.17;;
34896;SDS011;43407;51.828;-2.298;2024-02-26T06:41:37;4.95;;;1.38;;
34896;SDS011;43407;51.828;-2.298;2024-02-26T06:44:04;4.97;;;1.50;;
34896;SDS011;43407;51.828;-2.298;2024-02-26T06:46:29;2.15;;;1.30;;
34896;SDS011;43407;51.828;-2.298;2024-02-26T06:48:55;3.80;;;1.50;;
34896;SDS011;43407;51.828;-2.298;2024-02-26T06:51:21;5.53;;;1.45;;
34896;SDS011;43407;51.828;-2.298;2024-02-26T06:53:46;4.20;;;1.33;;
34896;SDS011;43407;51.828;-2.298;2024-02-26T06:56:11;6.10;;;1.63;;
34896;SDS011;43407;51.828;-2.298;2024-02-26T06:58:37;6.35;;;1.83;;
34896;SDS011;43407;51.828;-2.298;2024-02-26T07:01:02;6.35;;;1.90;;
34896;SDS011;43407;51.828;-2.298;2024-02-26T07:03:28;6.53;;;1.38;;
34896;SDS011;43407;51.828;-2.298;2024-02-26T07:05:54;2.78;;;1.20;;
34896;SDS011;43407;51.828;-2.298;2024-02-26T07:08:19;4.88;;;1.48;;
34896;SDS011;43407;51.828;-2.298;2024-02-26T07:10:46;4.95;;;1.48;;
34896;SDS011;43407;51.828;-2.298;2024-02-26T07:13:11;6.15;;;1.50;;
34896;SDS011;43407;51.828;-2.298;2024-02-26T07:15:37;6.07;;;1.45;;
34896;SDS011;43407;51.828;-2.298;2024-02-26T07:18:02;4.90;;;1.30;;
34896;SDS011;43407;51.828;-2.298;2024-02-26T07:20:31;4.05;;;1.38;;
34896;SDS011;43407;51.828;-2.298;2024-02-26T07:22:56;4.63;;;1.33;;
34896;SDS011;43407;51.828;-2.298;2024-02-26T07:25:22;2.95;;;1.10;;
34896;SDS011;43407;51.828;-2.298;2024-02-26T07:27:48;5.78;;;1.50;;
34896;SDS011;43407;51.828;-2.298;2024-02-26T07:30:13;2.50;;;1.10;;
34896;SDS011;43407;51.828;-2.298;2024-02-26T07:32:39;5.90;;;1.50;;
34896;SDS011;43407;51.828;-2.298;2024-02-26T07:35:05;3.28;;;1.42;;
34896;SDS011;43407;51.828;-2.298;2024-02-26T07:37:30;7.60;;;1.40;;
34896;SDS011;43407;51.828;-2.298;2024-02-26T07:39:55;6.78;;;1.27;;
34896;SDS011;43407;51.828;-2.298;2024-02-26T07:42:21;2.85;;;1.17;;
34896;SDS011;43407;51.828;-2.298;2024-02-26T07:44:46;3.88;;;1.33;;
34896;SDS011;43407;51.828;-2.298;2024-02-26T07:47:11;2.92;;;1.30;;
34896;SDS011;43407;51.828;-2.298;2024-02-26T07:49:37;5.53;;;1.70;;
34896;SDS011;43407;51.828;-2.298;2024-02-26T07:52:02;4.32;;;1.60;;
34896;SDS011;43407;51.828;-2.298;2024-02-26T07:54:28;2.38;;;1.20;;
34896;SDS011;43407;51.828;-2.298;2024-02-26T07:56:53;2.58;;;1.60;;
34896;SDS011;43407;51.828;-2.298;2024-02-26T07:59:19;5.50;;;2.00;;
34896;SDS011;43407;51.828;-2.298;2024-02-26T08:01:44;6.05;;;2.33;;
34896;SDS011;43407;51.828;-2.298;2024-02-26T08:04:14;4.65;;;1.80;;
34896;SDS011;43407;51.828;-2.298;2024-02-26T08:06:39;5.53;;;2.33;;
34896;SDS011;43407;51.828;-2.298;2024-02-26T08:09:04;3.70;;;1.80;;
34896;SDS011;43407;51.828;-2.298;2024-02-26T08:11:30;5.47;;;1.90;;
34896;SDS011;43407;51.828;-2.298;2024-02-26T08:13:55;6.07;;;1.90;;
34896;SDS011;43407;51.828;-2.298;2024-02-26T08:16:21;4.22;;;1.60;;
34896;SDS011;43407;51.828;-2.298;2024-02-26T08:18:46;2.92;;;1.80;;
34896;SDS011;43407;51.828;-2.298;2024-02-26T08:21:11;5.40;;;2.10;;
34896;SDS011;43407;51.828;-2.298;2024-02-26T08:23:37;6.55;;;2.38;;
34896;SDS011;43407;51.828;-2.298;2024-02-26T08:26:02;3.85;;;2.00;;
34896;SDS011;43407;51.828;-2.298;2024-02-26T08:28:29;4.18;;;2.13;;
34896;SDS011;43407;51.828;-2.298;2024-02-26T08:30:54;4.78;;;2.00;;
34896;SDS011;43407;51.828;-2.298;2024-02-26T08:33:20;7.00;;;2.53;;
34896;SDS011;43407;51.828;-2.298;2024-02-26T08:35:45;4.72;;;2.22;;
34896;SDS011;43407;51.828;-2.298;2024-02-26T08:38:11;4.80;;;2.30;;
34896;SDS011;43407;51.828;-2.298;2024-02-26T08:40:36;3.45;;;2.10;;
34896;SDS011;43407;51.828;-2.298;2024-02-26T08:43:02;6.25;;;2.55;;
34896;SDS011;43407;51.828;-2.298;2024-02-26T08:45:27;4.05;;;2.10;;
34896;SDS011;43407;51.828;-2.298;2024-02-26T08:47:52;5.75;;;2.67;;
34896;SDS011;43407;51.828;-2.298;2024-02-26T08:50:18;7.03;;;2.05;;
34896;SDS011;43407;51.828;-2.298;2024-02-26T08:52:43;7.25;;;2.42;;
34896;SDS011;43407;51.828;-2.298;2024-02-26T08:55:09;15.85;;;2.38;;
34896;SDS011;43407;51.828;-2.298;2024-02-26T08:57:34;7.97;;;2.30;;
34896;SDS011;43407;51.828;-2.298;2024-02-26T09:00:00;3.58;;;2.53;;
34896;SDS011;43407;51.828;-2.298;2024-02-26T09:02:25;5.60;;;2.22;;
34896;SDS011;43407;51.828;-2.298;2024-02-26T09:04:51;3.60;;;2.28;;
34896;SDS011;43407;51.828;-2.298;2024-02-26T09:07:19;3.50;;;2.20;;
34896;SDS011;43407;51.828;-2.298;2024-02-26T09:09:44;5.90;;;2.10;;
34896;SDS011;43407;51.828;-2.298;2024-02-26T09:12:10;4.95;;;2.25;;
34896;SDS011;43407;51.828;-2.298;2024-02-26T09:14:35;4.10;;;2.30;;
34896;SDS011;43407;51.828;-2.298;2024-02-26T09:17:00;4.40;;;2.38;;
34896;SDS011;43407;51.828;-2.298;2024-02-26T09:19:26;2.67;;;2.30;;
34896;SDS011;43407;51.828;-2.298;2024-02-26T09:21:52;3.40;;;2.03;;
34896;SDS011;43407;51.828;-2.298;2024-02-26T09:24:22;5.10;;;2.20;;
34896;SDS011;43407;51.828;-2.298;2024-02-26T09:26:47;6.63;;;2.42;;
34896;SDS011;43407;51.828;-2.298;2024-02-26T09:29:12;2.67;;;1.92;;
34896;SDS011;43407;51.828;-2.298;2024-02-26T09:31:38;3.95;;;2.08;;
34896;SDS011;43407;51.828;-2.298;2024-02-26T09:34:05;4.43;;;2.30;;
34896;SDS011;43407;51.828;-2.298;2024-02-26T09:36:30;5.43;;;2.47;;
34896;SDS011;43407;51.828;-2.298;2024-02-26T09:38:56;5.75;;;2.30;;
34896;SDS011;43407;51.828;-2.298;2024-02-26T09:41:21;5.78;;;2.40;;
34896;SDS011;43407;51.828;-2.298;2024-02-26T09:43:46;5.55;;;2.35;;
34896;SDS011;43407;51.828;-2.298;2024-02-26T09:46:13;3.92;;;2.17;;
34896;SDS011;43407;51.828;-2.298;2024-02-26T09:48:40;5.50;;;2.58;;
34896;SDS011;43407;51.828;-2.298;2024-02-26T09:51:07;3.28;;;2.33;;
34896;SDS011;43407;51.828;-2.298;2024-02-26T09:53:35;5.93;;;2.65;;
34896;SDS011;43407;51.828;-2.298;2024-02-26T09:56:06;3.33;;;2.20;;
34896;SDS011;43407;51.828;-2.298;2024-02-26T09:58:31;6.00;;;2.53;;
34896;SDS011;43407;51.828;-2.298;2024-02-26T10:00:57;4.53;;;2.10;;
34896;SDS011;43407;51.828;-2.298;2024-02-26T10:03:38;4.82;;;2.20;;
34896;SDS011;43407;51.828;-2.298;2024-02-26T10:06:04;2.92;;;2.00;;
34896;SDS011;43407;51.828;-2.298;2024-02-26T10:08:31;3.30;;;2.10;;
34896;SDS011;43407;51.828;-2.298;2024-02-26T10:10:56;5.05;;;2.08;;
34896;SDS011;43407;51.828;-2.298;2024-02-26T10:13:22;5.40;;;2.25;;
34896;SDS011;43407;51.828;-2.298;2024-02-26T10:15:48;3.05;;;1.90;;
34896;SDS011;43407;51.828;-2.298;2024-02-26T10:18:13;3.55;;;2.05;;
34896;SDS011;43407;51.828;-2.298;2024-02-26T10:20:39;6.03;;;2.42;;
34896;SDS011;43407;51.828;-2.298;2024-02-26T10:23:04;4.43;;;2.40;;
34896;SDS011;43407;51.828;-2.298;2024-02-26T10:25:30;3.05;;;2.15;;
34896;SDS011;43407;51.828;-2.298;2024-02-26T10:27:58;4.60;;;2.20;;
34896;SDS011;43407;51.828;-2.298;2024-02-26T10:30:24;4.07;;;2.13;;
34896;SDS011;43407;51.828;-2.298;2024-02-26T10:32:51;5.60;;;2.33;;
34896;SDS011;43407;51.828;-2.298;2024-02-26T10:35:17;5.40;;;2.70;;
34896;SDS011;43407;51.828;-2.298;2024-02-26T10:37:46;4.82;;;2.70;;
34896;SDS011;43407;51.828;-2.298;2024-02-26T10:40:12;4.78;;;2.60;;
34896;SDS011;43407;51.828;-2.298;2024-02-26T10:42:37;2.97;;;2.00;;
34896;SDS011;43407;51.828;-2.298;2024-02-26T10:45:04;4.90;;;2.42;;
34896;SDS011;43407;51.828;-2.298;2024-02-26T10:47:30;4.60;;;2.42;;
34896;SDS011;43407;51.828;-2.298;2024-02-26T10:49:56;8.23;;;2.75;;
34896;SDS011;43407;51.828;-2.298;2024-02-26T10:52:22;3.22;;;2.10;;
34896;SDS011;43407;51.828;-2.298;2024-02-26T10:54:48;6.55;;;2.50;;
34896;SDS011;43407;51.828;-2.298;2024-02-26T10:57:15;5.72;;;2.38;;
34896;SDS011;43407;51.828;-2.298;2024-02-26T10:59:41;5.15;;;2.25;;
34896;SDS011;43407;51.828;-2.298;2024-02-26T11:02:07;6.85;;;2.55;;
34896;SDS011;43407;51.828;-2.298;2024-02-26T11:04:34;4.03;;;2.22;;
34896;SDS011;43407;51.828;-2.298;2024-02-26T11:06:59;3.22;;;2.15;;
34896;SDS011;43407;51.828;-2.298;2024-02-26T11:09:26;3.65;;;2.25;;
34896;SDS011;43407;51.828;-2.298;2024-02-26T11:11:52;3.65;;;2.10;;
34896;SDS011;43407;51.828;-2.298;2024-02-26T11:14:19;3.88;;;2.00;;
34896;SDS011;43407;51.828;-2.298;2024-02-26T11:16:45;4.93;;;1.92;;
34896;SDS011;43407;51.828;-2.298;2024-02-26T11:19:12;4.97;;;2.17;;
34896;SDS011;43407;51.828;-2.298;2024-02-26T11:21:39;3.88;;;2.22;;
34896;SDS011;43407;51.828;-2.298;2024-02-26T11:24:05;4.63;;;2.10;;
34896;SDS011;43407;51.828;-2.298;2024-02-26T11:26:32;5.55;;;2.35;;
34896;SDS011;43407;51.828;-2.298;2024-02-26T11:28:58;3.13;;;2.10;;
34896;SDS011;43407;51.828;-2.298;2024-02-26T11:31:24;3.38;;;1.98;;
34896;SDS011;43407;51.828;-2.298;2024-02-26T11:33:52;8.18;;;2.35;;
34896;SDS011;43407;51.828;-2.298;2024-02-26T11:36:18;3.05;;;2.00;;
34896;SDS011;43407;51.828;-2.298;2024-02-26T11:38:44;2.58;;;2.08;;
34896;SDS011;43407;51.828;-2.298;2024-02-26T11:41:13;3.22;;;1.80;;
34896;SDS011;43407;51.828;-2.298;2024-02-26T11:43:53;4.28;;;2.15;;
34896;SDS011;43407;51.828;-2.298;2024-02-26T11:46:28;5.70;;;2.00;;
34896;SDS011;43407;51.828;-2.298;2024-02-26T11:48:55;5.00;;;2.03;;
34896;SDS011;43407;51.828;-2.298;2024-02-26T11:51:27;5.95;;;2.28;;
34896;SDS011;43407;51.828;-2.298;2024-02-26T11:53:53;5.60;;;1.77;;
34896;SDS011;43407;51.828;-2.298;2024-02-26T11:58:45;4.47;;;2.03;;
34896;SDS011;43407;51.828;-2.298;2024-02-26T12:03:54;5.05;;;2.03;;
34896;SDS011;43407;51.828;-2.298;2024-02-26T12:06:20;3.65;;;1.90;;
34896;SDS011;43407;51.828;-2.298;2024-02-26T12:08:46;9.27;;;2.20;;
34896;SDS011;43407;51.828;-2.298;2024-02-26T12:11:14;5.50;;;2.17;;
34896;SDS011;43407;51.828;-2.298;2024-02-26T12:13:41;6.55;;;2.00;;
34896;SDS011;43407;51.828;-2.298;2024-02-26T12:16:06;6.30;;;1.90;;
34896;SDS011;43407;51.828;-2.298;2024-02-26T12:18:32;3.00;;;1.42;;
34896;SDS011;43407;51.828;-2.298;2024-02-26T12:21:00;4.05;;;1.63;;
34896;SDS011;43407;51.828;-2.298;2024-02-26T12:23:28;3.80;;;1.50;;
34896;SDS011;43407;51.828;-2.298;2024-02-26T12:25:58;3.92;;;1.70;;
34896;SDS011;43407;51.828;-2.298;2024-02-26T12:28:23;4.35;;;1.90;;
34896;SDS011;43407;51.828;-2.298;2024-02-26T12:30:52;2.40;;;1.25;;
34896;SDS011;43407;51.828;-2.298;2024-02-26T12:33:17;4.03;;;1.70;;
34896;SDS011;43407;51.828;-2.298;2024-02-26T12:35:43;3.28;;;1.70;;
34896;SDS011;43407;51.828;-2.298;2024-02-26T12:38:12;6.28;;;1.83;;
34896;SDS011;43407;51.828;-2.298;2024-02-26T12:40:39;2.45;;;1.45;;
34896;SDS011;43407;51.828;-2.298;2024-02-26T12:43:04;4.57;;;1.33;;
34896;SDS011;43407;51.828;-2.298;2024-02-26T12:45:30;4.05;;;1.60;;
34896;SDS011;43407;51.828;-2.298;2024-02-26T12:47:55;5.68;;;1.40;;
34896;SDS011;43407;51.828;-2.298;2024-02-26T12:50:22;2.80;;;1.20;;
34896;SDS011;43407;51.828;-2.298;2024-02-26T12:52:47;2.58;;;0.95;;
34896;SDS011;43407;51.828;-2.298;2024-02-26T12:55:14;1.90;;;0.98;;
34896;SDS011;43407;51.828;-2.298;2024-02-26T12:57:40;4.60;;;1.50;;
34896;SDS011;43407;51.828;-2.298;2024-02-26T13:00:08;2.65;;;1.10;;
34896;SDS011;43407;51.828;-2.298;2024-02-26T13:02:36;4.00;;;1.08;;
34896;SDS011;43407;51.828;-2.298;2024-02-26T13:05:05;2.72;;;1.10;;
34896;SDS011;43407;51.828;-2.298;2024-02-26T13:07:32;4.93;;;1.00;;
34896;SDS011;43407;51.828;-2.298;2024-02-26T13:09:58;4.03;;;1.27;;
34896;SDS011;43407;51.828;-2.298;2024-02-26T13:12:23;4.05;;;1.05;;
34896;SDS011;43407;51.828;-2.298;2024-02-26T13:14:58;3.42;;;1.17;;
34896;SDS011;43407;51.828;-2.298;2024-02-26T13:17:23;1.02;;;0.90;;
34896;SDS011;43407;51.828;-2.298;2024-02-26T13:19:50;2.22;;;1.17;;
34896;SDS011;43407;51.828;-2.298;2024-02-26T13:22:15;2.97;;;1.10;;
34896;SDS011;43407;51.828;-2.298;2024-02-26T13:24:41;2.03;;;1.00;;
34896;SDS011;43407;51.828;-2.298;2024-02-26T13:27:07;3.83;;;1.20;;
34896;SDS011;43407;51.828;-2.298;2024-02-26T13:29:32;1.60;;;1.20;;
34896;SDS011;43407;51.828;-2.298;2024-02-26T13:31:58;1.52;;;0.68;;
34896;SDS011;43407;51.828;-2.298;2024-02-26T13:36:50;2.58;;;1.15;;
34896;SDS011;43407;51.828;-2.298;2024-02-26T13:39:21;1.08;;;0.80;;
34896;SDS011;43407;51.828;-2.298;2024-02-26T13:41:46;1.60;;;0.90;;
34896;SDS011;43407;51.828;-2.298;2024-02-26T13:44:12;1.67;;;1.00;;
34896;SDS011;43407;51.828;-2.298;2024-02-26T13:46:37;1.55;;;0.80;;
34896;SDS011;43407;51.828;-2.298;2024-02-26T13:49:03;3.13;;;0.85;;
34896;SDS011;43407;51.828;-2.298;2024-02-26T13:51:28;2.28;;;1.00;;
34896;SDS011;43407;51.828;-2.298;2024-02-26T13:54:00;1.92;;;1.00;;
34896;SDS011;43407;51.828;-2.298;2024-02-26T13:56:25;1.88;;;0.77;;
34896;SDS011;43407;51.828;-2.298;2024-02-26T13:58:51;1.23;;;0.70;;
34896;SDS011;43407;51.828;-2.298;2024-02-26T14:01:16;3.20;;;0.80;;
34896;SDS011;43407;51.828;-2.298;2024-02-26T14:03:42;2.10;;;0.85;;
34896;SDS011;43407;51.828;-2.298;2024-02-26T14:06:07;3.42;;;0.85;;
34896;SDS011;43407;51.828;-2.298;2024-02-26T14:08:32;2.10;;;0.98;;
34896;SDS011;43407;51.828;-2.298;2024-02-26T14:10:58;1.80;;;0.80;;
34896;SDS011;43407;51.828;-2.298;2024-02-26T14:13:25;0.82;;;0.73;;
34896;SDS011;43407;51.828;-2.298;2024-02-26T14:15:50;0.95;;;0.73;;
34896;SDS011;43407;51.828;-2.298;2024-02-26T14:18:15;2.83;;;0.82;;
34896;SDS011;43407;51.828;-2.298;2024-02-26T14:20:41;1.73;;;0.95;;
34896;SDS011;43407;51.828;-2.298;2024-02-26T14:23:06;1.48;;;0.90;;
34896;SDS011;43407;51.828;-2.298;2024-02-26T14:25:33;1.85;;;0.95;;
34896;SDS011;43407;51.828;-2.298;2024-02-26T14:27:58;4.20;;;1.20;;
34896;SDS011;43407;51.828;-2.298;2024-02-26T14:30:24;1.73;;;1.20;;
34896;SDS011;43407;51.828;-2.298;2024-02-26T14:32:50;2.13;;;1.30;;